createdAt,value
2022-11-25T00:04:00.550Z,5.25
2022-11-25T00:10:03.811Z,5.18
2022-11-25T00:16:09.408Z,5.70
2022-11-25T00:22:11.344Z,5.72
2022-11-25T00:28:13.950Z,4.72
2022-11-25T00:34:18.273Z,5.18
2022-11-25T00:47:43.526Z,4.20
2022-11-25T00:53:45.344Z,4.20
2022-11-25T00:59:47.563Z,4.53
2022-11-25T01:05:49.627Z,4.40
2022-11-25T01:11:51.880Z,4.90
2022-11-25T01:17:53.680Z,4.05
2022-11-25T01:23:56.184Z,4.97
2022-11-25T01:29:59.113Z,4.32
2022-11-25T01:36:19.194Z,4.15
2022-11-25T01:42:21.027Z,3.55
2022-11-25T01:48:28.954Z,4.15
2022-11-25T01:54:38.289Z,4.35
2022-11-25T02:00:40.459Z,4.20
2022-11-25T02:06:49.568Z,4.60
2022-11-25T02:12:52.668Z,4.68
2022-11-25T02:18:54.995Z,4.53
2022-11-25T02:25:09.181Z,4.90
2022-11-25T02:31:11.144Z,4.57
2022-11-25T02:37:13.937Z,4.55
2022-11-25T02:43:16.416Z,5.20
2022-11-25T02:49:18.260Z,4.88
2022-11-25T02:55:27.438Z,4.25
2022-11-25T03:01:32.588Z,4.78
2022-11-25T03:07:48.556Z,5.00
2022-11-25T03:14:04.662Z,4.80
2022-11-25T03:26:37.439Z,5.07
2022-11-25T03:32:39.325Z,4.97
2022-11-25T03:38:41.427Z,5.28
2022-11-25T03:44:44.194Z,5.53
2022-11-25T03:50:48.620Z,5.25
2022-11-25T03:56:50.530Z,5.25
2022-11-25T04:02:52.565Z,5.50
2022-11-25T04:08:55.642Z,5.38
2022-11-25T04:14:57.704Z,4.78
2022-11-25T04:20:59.791Z,4.90
2022-11-25T04:27:01.711Z,4.55
2022-11-25T04:33:03.830Z,4.45
2022-11-25T04:39:06.055Z,4.95
2022-11-25T04:45:33.374Z,5.20
2022-11-25T04:51:35.325Z,5.00
2022-11-25T04:57:41.147Z,5.47
2022-11-25T05:03:49.672Z,5.20
2022-11-25T05:09:54.463Z,5.03
2022-11-25T05:16:08.393Z,5.93
2022-11-25T05:22:15.489Z,4.43
2022-11-25T05:28:18.914Z,4.25
2022-11-25T05:34:21.081Z,4.57
2022-11-25T05:40:23.647Z,5.88
2022-11-25T05:46:36.842Z,5.22
2022-11-25T05:52:38.886Z,5.47
2022-11-25T05:58:41.353Z,5.30
2022-11-25T06:04:44.030Z,5.15
2022-11-25T06:10:46.048Z,5.00
2022-11-25T06:16:48.003Z,5.50
2022-11-25T06:23:13.362Z,5.30
2022-11-25T06:29:15.515Z,5.68
2022-11-25T06:35:22.328Z,6.00
2022-11-25T06:41:30.910Z,5.40
2022-11-25T06:47:32.899Z,4.45
2022-11-25T06:53:35.403Z,4.75
2022-11-25T06:59:37.340Z,5.07
2022-11-25T07:05:39.223Z,5.50
2022-11-25T07:11:42.318Z,5.20
2022-11-25T07:17:44.123Z,4.55
2022-11-25T07:23:47.214Z,4.40
2022-11-25T07:30:18.785Z,5.18
2022-11-25T07:36:13.068Z,4.32
2022-11-25T07:42:14.889Z,4.13
2022-11-25T07:48:16.675Z,4.35
2022-11-25T08:09:53.903Z,4.70
2022-11-25T08:15:58.672Z,4.22
2022-11-25T08:22:00.500Z,4.82
2022-11-25T08:28:02.279Z,4.03
2022-11-25T08:34:06.094Z,4.78
2022-11-25T08:40:10.525Z,4.90
2022-11-25T08:46:16.870Z,4.80
2022-11-25T08:52:18.923Z,4.93
2022-11-25T08:58:20.724Z,4.65
2022-11-25T09:04:22.645Z,4.25
2022-11-25T09:10:24.536Z,5.00
2022-11-25T09:16:27.061Z,3.85
2022-11-25T09:22:29.064Z,4.18
2022-11-25T09:28:30.970Z,4.25
2022-11-25T09:34:32.818Z,4.40
2022-11-25T09:40:46.786Z,4.68
2022-11-25T09:47:13.099Z,4.55
2022-11-25T09:53:44.244Z,4.50
2022-11-25T10:00:00.763Z,4.00
2022-11-25T10:06:14.931Z,4.60
2022-11-25T10:12:27.910Z,4.45
2022-11-25T10:18:39.493Z,4.38
2022-11-25T10:24:41.644Z,4.82
2022-11-25T10:31:01.674Z,4.65
2022-11-25T10:37:12.391Z,4.60
2022-11-25T10:43:14.602Z,4.45
2022-11-25T10:49:25.382Z,4.35
2022-11-25T10:55:29.743Z,4.72
2022-11-25T11:01:31.722Z,4.57
2022-11-25T11:07:45.385Z,4.78
2022-11-25T11:13:49.243Z,4.30
2022-11-25T11:20:09.598Z,4.57
2022-11-25T11:26:25.674Z,4.40
2022-11-25T11:32:29.229Z,4.32
2022-11-25T11:38:51.954Z,4.63
2022-11-25T11:45:09.169Z,4.20
2022-11-25T11:51:22.219Z,4.43
2022-11-25T11:57:43.888Z,4.80
2022-11-25T12:04:01.521Z,4.68
2022-11-25T12:10:20.117Z,4.72
2022-11-25T12:16:31.688Z,4.90
2022-11-25T12:22:53.766Z,4.35
2022-11-25T12:29:00.108Z,4.07
2022-11-25T12:35:16.431Z,4.40
2022-11-25T12:41:51.978Z,4.82
2022-11-25T12:47:54.175Z,4.55
2022-11-25T12:54:20.525Z,4.57
2022-11-25T13:00:42.484Z,4.75
2022-11-25T13:07:21.572Z,5.00
2022-11-25T13:13:48.642Z,4.38
2022-11-25T13:20:29.093Z,4.40
2022-11-25T13:26:32.770Z,4.03
2022-11-25T13:32:37.811Z,4.18
2022-11-25T13:38:59.844Z,4.15
2022-11-25T13:45:01.782Z,4.90
2022-11-25T13:51:20.792Z,4.43
2022-11-25T13:57:32.325Z,4.55
2022-11-25T14:03:34.476Z,4.13
2022-11-25T14:10:09.168Z,5.05
2022-11-25T14:16:38.301Z,4.53
2022-11-25T14:23:24.208Z,4.55
2022-11-25T14:29:52.438Z,4.60
2022-11-25T14:36:00.546Z,6.18
2022-11-25T14:42:21.997Z,5.53
2022-11-25T14:48:26.035Z,4.53
2022-11-25T14:54:28.746Z,4.20
2022-11-25T15:00:30.555Z,8.43
2022-11-25T15:06:37.706Z,6.75
2022-11-25T15:12:45.682Z,8.27
2022-11-25T15:18:51.937Z,7.43
2022-11-25T15:24:56.317Z,7.28
2022-11-25T15:31:00.931Z,8.32
2022-11-25T15:37:03.212Z,7.95
2022-11-25T15:43:07.850Z,6.80
2022-11-25T15:49:17.505Z,5.93
2022-11-25T15:55:39.387Z,5.63
2022-11-25T16:01:41.398Z,5.93
2022-11-25T16:07:55.280Z,9.48
2022-11-25T16:14:30.651Z,11.98
2022-11-25T16:20:32.478Z,16.60
2022-11-25T16:26:39.034Z,14.57
2022-11-25T16:32:40.936Z,16.02
2022-11-25T16:38:42.747Z,17.38
2022-11-25T16:44:48.642Z,14.90
2022-11-25T16:50:52.108Z,14.30
2022-11-25T16:56:54.998Z,11.65
2022-11-25T17:02:56.832Z,11.43
2022-11-25T17:08:58.810Z,10.43
2022-11-25T17:15:01.879Z,9.57
2022-11-25T17:21:03.919Z,11.60
2022-11-25T17:27:06.084Z,12.45
2022-11-25T17:33:15.929Z,14.75
2022-11-25T17:39:17.843Z,14.73
2022-11-25T17:45:21.253Z,12.43
2022-11-25T17:51:23.142Z,16.13
2022-11-25T17:57:29.142Z,13.15
2022-11-25T18:03:31.001Z,23.95
2022-11-25T18:09:32.880Z,22.02
2022-11-25T18:15:34.892Z,29.55
2022-11-25T18:21:36.732Z,30.92
2022-11-25T18:27:38.764Z,24.63
2022-11-25T18:33:40.696Z,22.08
2022-11-25T18:39:42.662Z,18.90
2022-11-25T18:45:48.355Z,21.55
2022-11-25T18:51:50.239Z,22.27
2022-11-25T18:57:52.665Z,22.42
2022-11-25T19:03:55.469Z,23.80
2022-11-25T19:09:59.378Z,28.13
2022-11-25T19:16:16.650Z,22.92
2022-11-25T19:22:18.931Z,21.90
2022-11-25T19:28:21.763Z,20.23
2022-11-25T19:34:28.908Z,20.27
2022-11-25T19:40:39.015Z,19.10
2022-11-25T19:47:13.869Z,19.15
2022-11-25T19:53:18.519Z,20.17
2022-11-25T19:59:20.346Z,17.73
2022-11-25T20:05:34.371Z,17.77
2022-11-25T20:11:36.838Z,21.55
2022-11-25T20:17:43.069Z,21.38
2022-11-25T20:23:45.824Z,18.65
2022-11-25T20:29:48.645Z,18.58
2022-11-25T20:35:52.778Z,19.38
2022-11-25T20:41:54.646Z,24.75
2022-11-25T20:47:56.846Z,19.90
2022-11-25T20:54:05.209Z,19.05
2022-11-25T21:00:13.921Z,18.92
2022-11-25T21:06:22.918Z,18.92
2022-11-25T21:12:25.181Z,19.70
2022-11-25T21:18:27.015Z,20.35
2022-11-25T21:24:39.302Z,18.65
2022-11-25T21:30:41.310Z,20.10
2022-11-25T21:36:45.968Z,17.52
2022-11-25T21:42:47.876Z,20.58
2022-11-25T21:48:49.927Z,19.40
2022-11-25T21:54:51.789Z,21.02
2022-11-25T22:00:56.326Z,19.48
2022-11-25T22:06:58.219Z,22.15
2022-11-25T22:13:00.099Z,20.83
2022-11-25T22:19:02.212Z,20.35
2022-11-25T22:25:04.169Z,27.77
2022-11-25T22:31:08.330Z,20.25
2022-11-25T22:37:17.031Z,21.38
2022-11-25T22:43:26.659Z,21.33
2022-11-25T22:49:46.109Z,19.60
2022-11-25T22:55:50.079Z,19.42
2022-11-25T23:01:52.273Z,20.13
2022-11-25T23:07:54.864Z,21.85
2022-11-25T23:13:56.800Z,19.83
2022-11-25T23:19:58.643Z,19.98
2022-11-25T23:26:00.517Z,19.30
2022-11-25T23:32:06.000Z,18.08
2022-11-25T23:38:13.452Z,19.75
2022-11-25T23:44:27.000Z,23.73
2022-11-25T23:50:33.911Z,21.27
2022-11-25T23:56:36.996Z,21.07
